sensor_id;sensor_type;location;lat;lon;timestamp;pressure;altitude;pressure_sealevel;temperature;humidity
21742;BME280;11033;47.490;11.116;2023-03-08T00:01:34;91864.16;;;1.40;74.89
21742;BME280;11033;47.490;11.116;2023-03-08T00:04:00;91863.16;;;1.41;75.02
21742;BME280;11033;47.490;11.116;2023-03-08T00:06:26;91869.94;;;1.50;75.21
21742;BME280;11033;47.490;11.116;2023-03-08T00:08:59;91866.06;;;1.46;76.11
21742;BME280;11033;47.490;11.116;2023-03-08T00:11:25;91869.66;;;1.37;76.33
21742;BME280;11033;47.490;11.116;2023-03-08T00:13:51;91878.09;;;1.39;76.78
21742;BME280;11033;47.490;11.116;2023-03-08T00:16:16;91884.09;;;1.39;75.94
21742;BME280;11033;47.490;11.116;2023-03-08T00:18:41;91888.94;;;1.42;76.33
21742;BME280;11033;47.490;11.116;2023-03-08T00:21:12;91885.38;;;1.43;75.69
21742;BME280;11033;47.490;11.116;2023-03-08T00:23:39;91883.41;;;1.45;75.36
21742;BME280;11033;47.490;11.116;2023-03-08T00:26:04;91879.88;;;1.38;75.73
21742;BME280;11033;47.490;11.116;2023-03-08T00:28:30;91879.03;;;1.46;74.88
21742;BME280;11033;47.490;11.116;2023-03-08T00:31:01;91886.78;;;1.54;75.32
21742;BME280;11033;47.490;11.116;2023-03-08T00:33:27;91887.22;;;1.66;74.46
21742;BME280;11033;47.490;11.116;2023-03-08T00:35:57;91883.22;;;1.55;75.05
21742;BME280;11033;47.490;11.116;2023-03-08T00:38:22;91885.81;;;1.55;74.93
21742;BME280;11033;47.490;11.116;2023-03-08T00:40:48;91885.16;;;1.53;75.31
21742;BME280;11033;47.490;11.116;2023-03-08T00:43:13;91881.25;;;1.57;76.06
21742;BME280;11033;47.490;11.116;2023-03-08T00:45:38;91886.13;;;1.60;75.55
21742;BME280;11033;47.490;11.116;2023-03-08T00:48:04;91887.59;;;1.54;76.07
21742;BME280;11033;47.490;11.116;2023-03-08T00:50:29;91895.84;;;1.58;75.63
21742;BME280;11033;47.490;11.116;2023-03-08T00:52:54;91890.34;;;1.53;77.14
21742;BME280;11033;47.490;11.116;2023-03-08T00:55:19;91896.81;;;1.57;77.40
21742;BME280;11033;47.490;11.116;2023-03-08T00:57:45;91894.53;;;1.62;75.89
21742;BME280;11033;47.490;11.116;2023-03-08T01:00:10;91891.31;;;1.60;76.58
21742;BME280;11033;47.490;11.116;2023-03-08T01:02:37;91891.09;;;1.70;75.91
21742;BME280;11033;47.490;11.116;2023-03-08T01:05:05;91879.91;;;1.69;76.13
21742;BME280;11033;47.490;11.116;2023-03-08T01:07:31;91881.53;;;1.70;75.85
21742;BME280;11033;47.490;11.116;2023-03-08T01:09:56;91881.69;;;1.69;75.62
21742;BME280;11033;47.490;11.116;2023-03-08T01:12:21;91886.03;;;1.76;75.33
21742;BME280;11033;47.490;11.116;2023-03-08T01:14:49;91878.13;;;1.70;75.74
21742;BME280;11033;47.490;11.116;2023-03-08T01:17:14;91863.94;;;1.49;76.62
21742;BME280;11033;47.490;11.116;2023-03-08T01:19:40;91861.19;;;1.51;77.27
21742;BME280;11033;47.490;11.116;2023-03-08T01:22:05;91861.38;;;1.41;77.53
21742;BME280;11033;47.490;11.116;2023-03-08T01:24:30;91857.63;;;1.52;77.74
21742;BME280;11033;47.490;11.116;2023-03-08T01:26:56;91851.13;;;1.48;77.44
21742;BME280;11033;47.490;11.116;2023-03-08T01:29:22;91858.31;;;1.30;78.09
21742;BME280;11033;47.490;11.116;2023-03-08T01:31:48;91853.13;;;1.30;78.02
21742;BME280;11033;47.490;11.116;2023-03-08T01:34:13;91867.22;;;1.43;77.86
21742;BME280;11033;47.490;11.116;2023-03-08T01:36:38;91870.28;;;1.47;76.59
21742;BME280;11033;47.490;11.116;2023-03-08T01:39:03;91876.75;;;1.51;76.54
21742;BME280;11033;47.490;11.116;2023-03-08T01:41:30;91861.53;;;1.48;77.13
21742;BME280;11033;47.490;11.116;2023-03-08T01:43:56;91856.66;;;1.45;77.40
21742;BME280;11033;47.490;11.116;2023-03-08T01:49:09;91841.56;;;1.48;77.32
21742;BME280;11033;47.490;11.116;2023-03-08T01:51:42;91845.28;;;1.54;76.34
21742;BME280;11033;47.490;11.116;2023-03-08T01:54:18;91856.97;;;1.50;76.02
21742;BME280;11033;47.490;11.116;2023-03-08T01:56:46;91856.94;;;1.58;75.55
21742;BME280;11033;47.490;11.116;2023-03-08T01:59:13;91853.63;;;1.33;78.16
21742;BME280;11033;47.490;11.116;2023-03-08T02:01:39;91852.97;;;1.39;77.95
21742;BME280;11033;47.490;11.116;2023-03-08T02:04:06;91850.50;;;1.46;76.53
21742;BME280;11033;47.490;11.116;2023-03-08T02:06:31;91849.56;;;1.39;77.19
21742;BME280;11033;47.490;11.116;2023-03-08T02:08:57;91850.22;;;1.24;78.72
21742;BME280;11033;47.490;11.116;2023-03-08T02:11:23;91848.94;;;1.20;78.28
21742;BME280;11033;47.490;11.116;2023-03-08T02:13:50;91846.31;;;1.28;77.47
21742;BME280;11033;47.490;11.116;2023-03-08T02:16:15;91848.09;;;1.36;77.01
21742;BME280;11033;47.490;11.116;2023-03-08T02:19:00;91839.22;;;1.31;76.52
21742;BME280;11033;47.490;11.116;2023-03-08T02:21:27;91831.09;;;1.25;76.31
21742;BME280;11033;47.490;11.116;2023-03-08T02:23:53;91826.06;;;1.24;76.66
21742;BME280;11033;47.490;11.116;2023-03-08T02:26:19;91823.69;;;1.14;77.86
21742;BME280;11033;47.490;11.116;2023-03-08T02:28:44;91813.00;;;1.09;78.84
21742;BME280;11033;47.490;11.116;2023-03-08T02:31:11;91818.50;;;1.14;78.33
21742;BME280;11033;47.490;11.116;2023-03-08T02:33:36;91811.72;;;1.05;79.55
21742;BME280;11033;47.490;11.116;2023-03-08T02:36:02;91803.88;;;1.21;78.02
21742;BME280;11033;47.490;11.116;2023-03-08T02:38:28;91806.31;;;1.23;77.12
21742;BME280;11033;47.490;11.116;2023-03-08T02:40:54;91801.63;;;1.18;78.32
21742;BME280;11033;47.490;11.116;2023-03-08T02:43:20;91813.66;;;1.11;78.65
21742;BME280;11033;47.490;11.116;2023-03-08T02:45:46;91810.41;;;1.09;78.85
21742;BME280;11033;47.490;11.116;2023-03-08T02:48:11;91810.06;;;1.12;78.00
21742;BME280;11033;47.490;11.116;2023-03-08T02:50:36;91805.06;;;1.11;80.17
21742;BME280;11033;47.490;11.116;2023-03-08T02:53:05;91790.34;;;1.03;79.44
21742;BME280;11033;47.490;11.116;2023-03-08T02:55:30;91800.19;;;1.16;79.79
21742;BME280;11033;47.490;11.116;2023-03-08T02:57:55;91800.19;;;1.16;79.60
21742;BME280;11033;47.490;11.116;2023-03-08T03:00:21;91792.56;;;1.14;78.45
21742;BME280;11033;47.490;11.116;2023-03-08T03:02:46;91797.28;;;1.11;80.56
21742;BME280;11033;47.490;11.116;2023-03-08T03:05:12;91794.19;;;1.15;79.74
21742;BME280;11033;47.490;11.116;2023-03-08T03:07:40;91795.13;;;1.22;78.49
21742;BME280;11033;47.490;11.116;2023-03-08T03:10:06;91786.50;;;0.91;79.89
21742;BME280;11033;47.490;11.116;2023-03-08T03:12:32;91785.50;;;1.00;78.93
21742;BME280;11033;47.490;11.116;2023-03-08T03:15:00;91771.88;;;0.98;78.92
21742;BME280;11033;47.490;11.116;2023-03-08T03:17:26;91778.88;;;0.89;79.81
21742;BME280;11033;47.490;11.116;2023-03-08T03:19:51;91779.97;;;1.03;79.22
21742;BME280;11033;47.490;11.116;2023-03-08T03:22:16;91782.38;;;1.13;78.37
21742;BME280;11033;47.490;11.116;2023-03-08T03:24:42;91760.31;;;1.17;77.61
21742;BME280;11033;47.490;11.116;2023-03-08T03:27:07;91766.00;;;1.12;78.07
21742;BME280;11033;47.490;11.116;2023-03-08T03:29:32;91766.13;;;1.19;77.31
21742;BME280;11033;47.490;11.116;2023-03-08T03:31:57;91766.97;;;1.11;77.39
21742;BME280;11033;47.490;11.116;2023-03-08T03:34:23;91759.28;;;0.87;79.93
21742;BME280;11033;47.490;11.116;2023-03-08T03:36:48;91768.13;;;1.09;77.84
21742;BME280;11033;47.490;11.116;2023-03-08T03:39:14;91778.50;;;1.09;77.56
21742;BME280;11033;47.490;11.116;2023-03-08T03:41:39;91770.28;;;0.97;79.32
21742;BME280;11033;47.490;11.116;2023-03-08T03:44:04;91769.28;;;1.06;77.68
21742;BME280;11033;47.490;11.116;2023-03-08T03:46:30;91765.16;;;1.20;76.31
21742;BME280;11033;47.490;11.116;2023-03-08T03:48:55;91763.81;;;0.93;79.43
21742;BME280;11033;47.490;11.116;2023-03-08T03:51:21;91766.72;;;0.90;78.95
21742;BME280;11033;47.490;11.116;2023-03-08T03:53:47;91774.19;;;0.85;79.68
21742;BME280;11033;47.490;11.116;2023-03-08T03:56:18;91778.75;;;0.83;79.83
21742;BME280;11033;47.490;11.116;2023-03-08T03:58:43;91784.03;;;0.98;78.12
21742;BME280;11033;47.490;11.116;2023-03-08T04:01:11;91787.94;;;0.93;79.20
21742;BME280;11033;47.490;11.116;2023-03-08T04:03:38;91793.28;;;0.92;79.00
21742;BME280;11033;47.490;11.116;2023-03-08T04:06:08;91801.72;;;0.86;79.96
21742;BME280;11033;47.490;11.116;2023-03-08T04:08:34;91806.94;;;0.78;80.72
21742;BME280;11033;47.490;11.116;2023-03-08T04:10:59;91809.69;;;0.76;80.33
21742;BME280;11033;47.490;11.116;2023-03-08T04:13:24;91798.84;;;0.81;79.44
21742;BME280;11033;47.490;11.116;2023-03-08T04:15:50;91799.00;;;0.79;78.40
21742;BME280;11033;47.490;11.116;2023-03-08T04:18:15;91796.41;;;0.79;78.66
21742;BME280;11033;47.490;11.116;2023-03-08T04:20:40;91790.25;;;0.80;79.87
21742;BME280;11033;47.490;11.116;2023-03-08T04:23:05;91784.91;;;0.74;79.98
21742;BME280;11033;47.490;11.116;2023-03-08T04:25:31;91773.59;;;0.75;80.60
21742;BME280;11033;47.490;11.116;2023-03-08T04:27:56;91760.13;;;0.79;79.47
21742;BME280;11033;47.490;11.116;2023-03-08T04:30:21;91762.25;;;0.76;79.46
21742;BME280;11033;47.490;11.116;2023-03-08T04:32:46;91738.91;;;0.84;78.24
21742;BME280;11033;47.490;11.116;2023-03-08T04:35:12;91734.38;;;0.78;78.10
21742;BME280;11033;47.490;11.116;2023-03-08T04:37:37;91726.44;;;0.79;77.85
21742;BME280;11033;47.490;11.116;2023-03-08T04:40:03;91719.19;;;0.75;78.89
21742;BME280;11033;47.490;11.116;2023-03-08T04:42:32;91719.19;;;0.75;78.14
21742;BME280;11033;47.490;11.116;2023-03-08T04:44:57;91712.38;;;0.74;77.98
21742;BME280;11033;47.490;11.116;2023-03-08T04:47:22;91700.41;;;0.73;78.00
21742;BME280;11033;47.490;11.116;2023-03-08T04:49:47;91707.53;;;0.71;78.67
21742;BME280;11033;47.490;11.116;2023-03-08T04:52:13;91702.84;;;0.66;77.99
21742;BME280;11033;47.490;11.116;2023-03-08T04:54:38;91702.03;;;0.66;79.68
21742;BME280;11033;47.490;11.116;2023-03-08T04:57:03;91688.59;;;0.62;78.71
21742;BME280;11033;47.490;11.116;2023-03-08T04:59:28;91687.44;;;0.64;79.12
21742;BME280;11033;47.490;11.116;2023-03-08T05:01:54;91689.41;;;0.62;78.19
21742;BME280;11033;47.490;11.116;2023-03-08T05:04:19;91683.91;;;0.66;79.09
21742;BME280;11033;47.490;11.116;2023-03-08T05:06:44;91695.25;;;0.56;79.36
21742;BME280;11033;47.490;11.116;2023-03-08T05:09:09;91680.19;;;0.60;77.68
21742;BME280;11033;47.490;11.116;2023-03-08T05:11:35;91678.56;;;0.59;77.48
21742;BME280;11033;47.490;11.116;2023-03-08T05:14:00;91667.22;;;0.68;78.07
21742;BME280;11033;47.490;11.116;2023-03-08T05:16:25;91662.50;;;0.63;78.40
21742;BME280;11033;47.490;11.116;2023-03-08T05:18:51;91659.63;;;0.58;78.01
21742;BME280;11033;47.490;11.116;2023-03-08T05:21:19;91650.91;;;0.51;78.66
21742;BME280;11033;47.490;11.116;2023-03-08T05:23:45;91648.63;;;0.56;78.45
21742;BME280;11033;47.490;11.116;2023-03-08T05:26:13;91644.75;;;0.52;78.00
21742;BME280;11033;47.490;11.116;2023-03-08T05:28:38;91645.72;;;0.51;77.83
21742;BME280;11033;47.490;11.116;2023-03-08T05:33:37;91655.44;;;0.49;79.36
21742;BME280;11033;47.490;11.116;2023-03-08T05:36:03;91646.38;;;0.53;78.35
21742;BME280;11033;47.490;11.116;2023-03-08T05:38:29;91651.25;;;0.48;78.18
21742;BME280;11033;47.490;11.116;2023-03-08T05:41:05;91644.13;;;0.50;78.43
21742;BME280;11033;47.490;11.116;2023-03-08T05:43:30;91639.28;;;0.47;79.50
21742;BME280;11033;47.490;11.116;2023-03-08T05:45:57;91633.63;;;0.44;78.97
21742;BME280;11033;47.490;11.116;2023-03-08T05:48:23;91630.88;;;0.45;78.23
21742;BME280;11033;47.490;11.116;2023-03-08T05:50:49;91631.19;;;0.42;79.82
21742;BME280;11033;47.490;11.116;2023-03-08T05:53:14;91632.81;;;0.43;78.28
21742;BME280;11033;47.490;11.116;2023-03-08T05:55:39;91621.16;;;0.47;78.95
21742;BME280;11033;47.490;11.116;2023-03-08T05:58:04;91628.91;;;0.47;78.65
21742;BME280;11033;47.490;11.116;2023-03-08T06:00:30;91632.13;;;0.49;77.30
21742;BME280;11033;47.490;11.116;2023-03-08T06:02:58;91632.47;;;0.46;77.45
21742;BME280;11033;47.490;11.116;2023-03-08T06:05:24;91622.75;;;0.48;77.85
21742;BME280;11033;47.490;11.116;2023-03-08T06:07:49;91615.94;;;0.55;77.31
21742;BME280;11033;47.490;11.116;2023-03-08T06:10:15;91625.94;;;0.58;77.48
21742;BME280;11033;47.490;11.116;2023-03-08T06:12:41;91625.81;;;0.52;77.79
21742;BME280;11033;47.490;11.116;2023-03-08T06:15:06;91631.44;;;0.63;77.37
21742;BME280;11033;47.490;11.116;2023-03-08T06:17:32;91624.00;;;0.60;77.76
21742;BME280;11033;47.490;11.116;2023-03-08T06:19:57;91626.41;;;0.70;77.32
21742;BME280;11033;47.490;11.116;2023-03-08T06:22:22;91629.47;;;0.74;76.85
21742;BME280;11033;47.490;11.116;2023-03-08T06:24:47;91635.00;;;0.71;77.52
21742;BME280;11033;47.490;11.116;2023-03-08T06:27:14;91618.31;;;0.73;76.91
21742;BME280;11033;47.490;11.116;2023-03-08T06:29:40;91624.28;;;0.74;77.61
21742;BME280;11033;47.490;11.116;2023-03-08T06:32:06;91625.56;;;0.78;77.21
21742;BME280;11033;47.490;11.116;2023-03-08T06:34:31;91627.19;;;0.79;76.83
21742;BME280;11033;47.490;11.116;2023-03-08T06:36:57;91614.69;;;0.82;76.94
21742;BME280;11033;47.490;11.116;2023-03-08T06:39:24;91609.00;;;0.87;77.42
21742;BME280;11033;47.490;11.116;2023-03-08T06:41:49;91615.09;;;0.94;76.71
21742;BME280;11033;47.490;11.116;2023-03-08T06:44:14;91612.84;;;0.91;76.85
21742;BME280;11033;47.490;11.116;2023-03-08T06:46:40;91616.72;;;0.95;77.04
21742;BME280;11033;47.490;11.116;2023-03-08T06:49:05;91621.03;;;1.03;77.44
21742;BME280;11033;47.490;11.116;2023-03-08T06:51:32;91614.84;;;1.12;76.01
21742;BME280;11033;47.490;11.116;2023-03-08T06:53:57;91630.56;;;1.10;76.68
21742;BME280;11033;47.490;11.116;2023-03-08T06:56:22;91633.09;;;1.18;75.83
21742;BME280;11033;47.490;11.116;2023-03-08T06:58:48;91630.84;;;1.15;76.06
21742;BME280;11033;47.490;11.116;2023-03-08T07:01:14;91633.72;;;1.20;76.26
21742;BME280;11033;47.490;11.116;2023-03-08T07:03:40;91620.88;;;1.27;76.53
21742;BME280;11033;47.490;11.116;2023-03-08T07:06:08;91620.22;;;1.33;76.45
21742;BME280;11033;47.490;11.116;2023-03-08T07:08:34;91605.75;;;1.39;76.88
21742;BME280;11033;47.490;11.116;2023-03-08T07:11:00;91607.75;;;1.51;76.22
21742;BME280;11033;47.490;11.116;2023-03-08T07:13:26;91609.81;;;1.56;75.76
21742;BME280;11033;47.490;11.116;2023-03-08T07:15:53;91612.34;;;1.64;75.44
21742;BME280;11033;47.490;11.116;2023-03-08T07:18:18;91609.69;;;1.72;74.91
21742;BME280;11033;47.490;11.116;2023-03-08T07:20:44;91604.59;;;1.79;74.78
21742;BME280;11033;47.490;11.116;2023-03-08T07:23:09;91605.31;;;1.87;74.66
21742;BME280;11033;47.490;11.116;2023-03-08T07:25:37;91593.97;;;1.88;74.42
21742;BME280;11033;47.490;11.116;2023-03-08T07:28:03;91594.72;;;1.97;73.84
21742;BME280;11033;47.490;11.116;2023-03-08T07:30:28;91600.81;;;2.04;73.50
21742;BME280;11033;47.490;11.116;2023-03-08T07:32:53;91597.88;;;2.07;73.27
21742;BME280;11033;47.490;11.116;2023-03-08T07:35:19;91597.75;;;2.01;73.30
21742;BME280;11033;47.490;11.116;2023-03-08T07:37:45;91596.69;;;2.10;72.42
21742;BME280;11033;47.490;11.116;2023-03-08T07:40:13;91594.38;;;2.15;72.16
21742;BME280;11033;47.490;11.116;2023-03-08T07:42:38;91596.53;;;2.26;71.95
21742;BME280;11033;47.490;11.116;2023-03-08T07:45:04;91604.59;;;2.31;71.92
21742;BME280;11033;47.490;11.116;2023-03-08T07:47:29;91597.06;;;2.36;71.94
21742;BME280;11033;47.490;11.116;2023-03-08T07:49:54;91594.91;;;2.40;71.56
21742;BME280;11033;47.490;11.116;2023-03-08T07:52:20;91594.00;;;2.47;70.83
21742;BME280;11033;47.490;11.116;2023-03-08T07:54:45;91589.00;;;2.61;70.74
21742;BME280;11033;47.490;11.116;2023-03-08T07:57:14;91586.56;;;2.74;70.87
21742;BME280;11033;47.490;11.116;2023-03-08T07:59:39;91575.44;;;2.80;70.80
21742;BME280;11033;47.490;11.116;2023-03-08T08:02:05;91578.91;;;2.87;70.12
21742;BME280;11033;47.490;11.116;2023-03-08T08:04:30;91554.97;;;2.92;69.38
21742;BME280;11033;47.490;11.116;2023-03-08T08:06:58;91542.63;;;3.00;70.21
21742;BME280;11033;47.490;11.116;2023-03-08T08:09:24;91544.75;;;3.11;68.94
21742;BME280;11033;47.490;11.116;2023-03-08T08:11:49;91535.22;;;3.18;69.13
21742;BME280;11033;47.490;11.116;2023-03-08T08:14:14;91518.84;;;3.25;68.04
21742;BME280;11033;47.490;11.116;2023-03-08T08:16:40;91522.44;;;3.24;68.14
21742;BME280;11033;47.490;11.116;2023-03-08T08:19:05;91513.75;;;3.31;67.86
21742;BME280;11033;47.490;11.116;2023-03-08T08:21:30;91494.59;;;3.39;68.12
21742;BME280;11033;47.490;11.116;2023-03-08T08:23:55;91487.88;;;3.51;67.75
21742;BME280;11033;47.490;11.116;2023-03-08T08:26:22;91488.31;;;3.55;68.29
21742;BME280;11033;47.490;11.116;2023-03-08T08:28:50;91489.81;;;3.70;67.14
21742;BME280;11033;47.490;11.116;2023-03-08T08:31:19;91473.81;;;3.73;66.62
21742;BME280;11033;47.490;11.116;2023-03-08T08:33:45;91467.03;;;3.79;66.19
21742;BME280;11033;47.490;11.116;2023-03-08T08:36:13;91462.78;;;3.71;67.03
21742;BME280;11033;47.490;11.116;2023-03-08T08:38:38;91467.69;;;3.88;66.66
21742;BME280;11033;47.490;11.116;2023-03-08T08:41:05;91457.38;;;4.01;66.76
21742;BME280;11033;47.490;11.116;2023-03-08T08:43:33;91449.38;;;4.09;66.27
21742;BME280;11033;47.490;11.116;2023-03-08T08:45:58;91433.41;;;4.25;66.49
21742;BME280;11033;47.490;11.116;2023-03-08T08:48:24;91449.88;;;4.32;65.59
21742;BME280;11033;47.490;11.116;2023-03-08T08:50:51;91421.44;;;4.37;65.02
21742;BME280;11033;47.490;11.116;2023-03-08T08:53:17;91429.88;;;4.46;65.67
21742;BME280;11033;47.490;11.116;2023-03-08T08:55:43;91423.31;;;4.57;65.21
21742;BME280;11033;47.490;11.116;2023-03-08T08:58:10;91431.50;;;4.54;64.06
21742;BME280;11033;47.490;11.116;2023-03-08T09:00:35;91425.53;;;4.66;63.87
21742;BME280;11033;47.490;11.116;2023-03-08T09:03:01;91390.66;;;4.74;64.08
21742;BME280;11033;47.490;11.116;2023-03-08T09:05:27;91405.13;;;4.90;64.05
21742;BME280;11033;47.490;11.116;2023-03-08T09:07:54;91408.72;;;4.95;64.04
21742;BME280;11033;47.490;11.116;2023-03-08T09:10:22;91416.16;;;5.12;63.57
21742;BME280;11033;47.490;11.116;2023-03-08T09:12:48;91422.81;;;5.21;63.76
21742;BME280;11033;47.490;11.116;2023-03-08T09:15:13;91411.38;;;5.35;64.23
21742;BME280;11033;47.490;11.116;2023-03-08T09:17:38;91375.59;;;5.49;63.52
21742;BME280;11033;47.490;11.116;2023-03-08T09:20:05;91358.91;;;5.56;61.96
21742;BME280;11033;47.490;11.116;2023-03-08T09:22:34;91342.63;;;5.67;61.80
21742;BME280;11033;47.490;11.116;2023-03-08T09:24:59;91329.31;;;5.89;62.39
21742;BME280;11033;47.490;11.116;2023-03-08T09:27:24;91348.00;;;5.86;62.46
21742;BME280;11033;47.490;11.116;2023-03-08T09:29:49;91349.41;;;5.95;61.92
21742;BME280;11033;47.490;11.116;2023-03-08T09:32:15;91347.16;;;6.05;61.79
21742;BME280;11033;47.490;11.116;2023-03-08T09:34:40;91342.47;;;6.20;62.54
21742;BME280;11033;47.490;11.116;2023-03-08T09:37:05;91330.13;;;6.34;62.46
21742;BME280;11033;47.490;11.116;2023-03-08T09:39:32;91325.03;;;6.46;62.31
21742;BME280;11033;47.490;11.116;2023-03-08T09:41:59;91313.28;;;6.61;62.31
21742;BME280;11033;47.490;11.116;2023-03-08T09:45:06;91307.31;;;6.79;61.91
21742;BME280;11033;47.490;11.116;2023-03-08T09:47:52;91303.41;;;6.88;62.74
21742;BME280;11033;47.490;11.116;2023-03-08T09:53:12;91291.09;;;7.20;62.80
21742;BME280;11033;47.490;11.116;2023-03-08T09:55:46;91308.91;;;7.30;59.84
21742;BME280;11033;47.490;11.116;2023-03-08T09:58:23;91319.69;;;7.40;60.67
21742;BME280;11033;47.490;11.116;2023-03-08T10:00:52;91311.94;;;7.52;60.33
21742;BME280;11033;47.490;11.116;2023-03-08T10:03:39;91320.00;;;7.69;61.06
21742;BME280;11033;47.490;11.116;2023-03-08T10:06:26;91327.97;;;7.80;57.86
21742;BME280;11033;47.490;11.116;2023-03-08T10:11:37;91345.59;;;8.10;58.51
21742;BME280;11033;47.490;11.116;2023-03-08T10:14:18;91329.06;;;8.09;58.91
21742;BME280;11033;47.490;11.116;2023-03-08T10:16:49;91344.34;;;8.12;59.47
21742;BME280;11033;47.490;11.116;2023-03-08T10:19:24;91357.59;;;8.17;57.15
21742;BME280;11033;47.490;11.116;2023-03-08T10:21:52;91339.03;;;8.19;57.59
21742;BME280;11033;47.490;11.116;2023-03-08T10:24:26;91319.50;;;8.33;58.06
21742;BME280;11033;47.490;11.116;2023-03-08T10:26:53;91324.59;;;8.46;58.96
21742;BME280;11033;47.490;11.116;2023-03-08T10:29:24;91329.06;;;8.46;57.87
21742;BME280;11033;47.490;11.116;2023-03-08T10:31:49;91340.53;;;8.45;58.46
21742;BME280;11033;47.490;11.116;2023-03-08T10:34:20;91335.00;;;8.53;59.14
21742;BME280;11033;47.490;11.116;2023-03-08T10:36:57;91336.81;;;8.82;58.49
21742;BME280;11033;47.490;11.116;2023-03-08T10:39:22;91342.31;;;8.93;57.99
21742;BME280;11033;47.490;11.116;2023-03-08T10:41:56;91350.44;;;9.03;58.21
21742;BME280;11033;47.490;11.116;2023-03-08T10:46:58;91344.47;;;9.26;58.92
21742;BME280;11033;47.490;11.116;2023-03-08T10:49:23;91338.66;;;9.35;59.06
21742;BME280;11033;47.490;11.116;2023-03-08T10:51:56;91332.94;;;9.38;56.56
21742;BME280;11033;47.490;11.116;2023-03-08T10:54:22;91340.47;;;9.46;55.42
21742;BME280;11033;47.490;11.116;2023-03-08T10:56:59;91331.34;;;9.61;56.57
21742;BME280;11033;47.490;11.116;2023-03-08T10:59:29;91341.28;;;9.70;55.01
21742;BME280;11033;47.490;11.116;2023-03-08T11:02:15;91350.19;;;9.69;50.72
21742;BME280;11033;47.490;11.116;2023-03-08T11:04:56;91332.63;;;9.81;52.94
21742;BME280;11033;47.490;11.116;2023-03-08T11:07:24;91337.75;;;9.88;54.88
21742;BME280;11033;47.490;11.116;2023-03-08T11:09:50;91348.94;;;9.95;54.04
21742;BME280;11033;47.490;11.116;2023-03-08T11:12:23;91349.06;;;10.00;51.77
21742;BME280;11033;47.490;11.116;2023-03-08T11:14:50;91352.47;;;10.01;54.27
21742;BME280;11033;47.490;11.116;2023-03-08T11:17:31;91353.97;;;10.08;54.25
21742;BME280;11033;47.490;11.116;2023-03-08T11:20:22;91372.38;;;10.20;53.41
21742;BME280;11033;47.490;11.116;2023-03-08T11:34:09;91369.84;;;10.13;55.80
21742;BME280;11033;47.490;11.116;2023-03-08T11:36:49;91373.28;;;10.26;55.93
21742;BME280;11033;47.490;11.116;2023-03-08T11:42:40;91371.78;;;10.30;56.66
21742;BME280;11033;47.490;11.116;2023-03-08T11:45:28;91367.19;;;10.37;58.34
21742;BME280;11033;47.490;11.116;2023-03-08T11:48:23;91368.59;;;10.04;58.79
21742;BME280;11033;47.490;11.116;2023-03-08T11:56:50;91361.97;;;10.13;58.59
21742;BME280;11033;47.490;11.116;2023-03-08T12:04:31;91375.59;;;10.22;58.23
21742;BME280;11033;47.490;11.116;2023-03-08T12:07:00;91374.41;;;10.30;58.55
21742;BME280;11033;47.490;11.116;2023-03-08T12:09:39;91368.91;;;10.20;57.22
21742;BME280;11033;47.490;11.116;2023-03-08T12:12:20;91372.38;;;10.20;57.11
21742;BME280;11033;47.490;11.116;2023-03-08T12:14:54;91371.78;;;10.30;58.50
21742;BME280;11033;47.490;11.116;2023-03-08T12:19:49;91372.13;;;10.33;58.52
21742;BME280;11033;47.490;11.116;2023-03-08T12:22:29;91375.81;;;10.09;58.10
21742;BME280;11033;47.490;11.116;2023-03-08T12:25:16;91384.13;;;10.17;59.60
21742;BME280;11033;47.490;11.116;2023-03-08T12:33:05;91386.69;;;9.89;58.31
21742;BME280;11033;47.490;11.116;2023-03-08T12:35:35;91389.66;;;10.04;57.47
21742;BME280;11033;47.490;11.116;2023-03-08T12:38:27;91376.84;;;9.96;57.77
21742;BME280;11033;47.490;11.116;2023-03-08T12:40:54;91384.84;;;10.25;58.24
21742;BME280;11033;47.490;11.116;2023-03-08T12:48:23;91372.69;;;10.47;57.11
21742;BME280;11033;47.490;11.116;2023-03-08T12:56:22;91357.34;;;10.84;57.93
21742;BME280;11033;47.490;11.116;2023-03-08T13:01:58;91358.13;;;11.13;59.01
21742;BME280;11033;47.490;11.116;2023-03-08T13:04:35;91351.03;;;11.14;57.94
21742;BME280;11033;47.490;11.116;2023-03-08T13:07:21;91360.38;;;11.21;57.31
21742;BME280;11033;47.490;11.116;2023-03-08T13:09:55;91361.75;;;11.40;57.85
21742;BME280;11033;47.490;11.116;2023-03-08T13:20:03;91402.72;;;11.31;56.28
21742;BME280;11033;47.490;11.116;2023-03-08T13:28:08;91405.44;;;11.36;60.17
21742;BME280;11033;47.490;11.116;2023-03-08T13:30:37;91402.34;;;11.39;60.62
21742;BME280;11033;47.490;11.116;2023-03-08T13:33:27;91401.97;;;11.19;59.18
21742;BME280;11033;47.490;11.116;2023-03-08T13:36:20;91415.09;;;11.31;59.80
21742;BME280;11033;47.490;11.116;2023-03-08T13:41:32;91417.75;;;11.31;60.46
21742;BME280;11033;47.490;11.116;2023-03-08T13:46:41;91403.25;;;11.17;61.22
21742;BME280;11033;47.490;11.116;2023-03-08T13:49:16;91411.44;;;11.32;61.07
21742;BME280;11033;47.490;11.116;2023-03-08T13:51:45;91406.72;;;11.34;61.03
21742;BME280;11033;47.490;11.116;2023-03-08T13:54:14;91403.53;;;11.32;61.41
21742;BME280;11033;47.490;11.116;2023-03-08T13:56:40;91410.06;;;11.29;61.50
21742;BME280;11033;47.490;11.116;2023-03-08T13:59:05;91415.53;;;11.11;61.03
21742;BME280;11033;47.490;11.116;2023-03-08T14:01:31;91419.97;;;11.22;60.37
21742;BME280;11033;47.490;11.116;2023-03-08T14:03:56;91439.53;;;10.86;61.35
21742;BME280;11033;47.490;11.116;2023-03-08T14:06:31;91425.31;;;10.99;61.48
21742;BME280;11033;47.490;11.116;2023-03-08T14:08:58;91437.63;;;10.82;60.98
21742;BME280;11033;47.490;11.116;2023-03-08T14:11:31;91438.47;;;10.99;61.64
21742;BME280;11033;47.490;11.116;2023-03-08T14:13:59;91437.81;;;10.92;64.57
21742;BME280;11033;47.490;11.116;2023-03-08T14:16:34;91431.97;;;10.90;64.16
21742;BME280;11033;47.490;11.116;2023-03-08T14:19:19;91436.06;;;10.57;65.33
21742;BME280;11033;47.490;11.116;2023-03-08T14:21:54;91427.16;;;10.58;64.96